Time;durP1;ratioP1;P1;durP2;ratioP2;P2;SDS_P1;SDS_P2;PMS_P1;PMS_P2;Temp;Humidity;BMP_temperature;BMP_pressure;BME280_temperature;BME280_humidity;BME280_pressure;Samples;Min_cycle;Max_cycle;Signal;HPM_P1;HPM_P2
2022/03/09 00:00:11;;;;;;;12.07;5.18;;;2.20;99.90;;;;;;5041899;28;20414;-91
2022/03/09 00:02:37;;;;;;;9.65;4.85;;;1.70;99.90;;;;;;5058064;28;20088;-91
2022/03/09 00:05:03;;;;;;;8.82;5.30;;;1.70;99.90;;;;;;5041838;28;20075;-90
2022/03/09 00:07:29;;;;;;;9.93;4.82;;;1.70;99.90;;;;;;5041616;28;20105;-91
2022/03/09 00:09:55;;;;;;;9.50;4.60;;;1.70;99.90;;;;;;5041993;28;20406;-91
2022/03/09 00:12:21;;;;;;;11.48;4.95;;;1.70;99.90;;;;;;5058157;28;20131;-92
2022/03/09 00:14:47;;;;;;;7.63;4.95;;;2.10;99.90;;;;;;5041753;28;20573;-91
2022/03/09 00:17:13;;;;;;;10.57;5.28;;;1.80;99.90;;;;;;5041536;28;20047;-91
2022/03/09 00:19:39;;;;;;;9.18;4.93;;;1.60;99.90;;;;;;5058421;28;20048;-91
2022/03/09 00:22:05;;;;;;;9.65;5.30;;;1.50;99.90;;;;;;5041552;28;20052;-92
2022/03/09 00:24:32;;;;;;;9.88;5.75;;;1.40;99.90;;;;;;5058103;28;20109;-92
2022/03/09 00:26:59;;;;;;;12.02;5.40;;;1.60;99.90;;;;;;5058134;28;20052;-91
2022/03/09 00:29:26;;;;;;;8.07;5.38;;;1.30;99.90;;;;;;5057884;28;20048;-91
2022/03/09 00:31:53;;;;;;;10.05;5.43;;;1.20;99.90;;;;;;5041079;28;20053;-91
2022/03/09 00:34:18;;;;;;;9.38;5.53;;;1.40;99.90;;;;;;5041311;28;20060;-91
2022/03/09 00:36:44;;;;;;;9.38;5.50;;;1.50;99.90;;;;;;5057940;28;20052;-91
2022/03/09 00:39:10;;;;;;;10.98;5.53;;;1.30;99.90;;;;;;5041045;28;20053;-91
2022/03/09 00:41:36;;;;;;;8.93;5.22;;;1.40;99.90;;;;;;5057585;28;20053;-92
2022/03/09 00:44:03;;;;;;;10.52;6.15;;;1.10;99.90;;;;;;5057449;28;20127;-90
2022/03/09 00:46:29;;;;;;;8.45;5.50;;;1.10;99.90;;;;;;5040822;28;20036;-91
2022/03/09 00:48:54;;;;;;;9.93;5.88;;;1.60;99.90;;;;;;5057758;28;20052;-91
2022/03/09 00:51:21;;;;;;;9.25;5.68;;;1.10;99.90;;;;;;5040727;28;20072;-91
2022/03/09 00:53:46;;;;;;;9.63;4.95;;;1.00;99.90;;;;;;5057206;28;20076;-91
2022/03/09 00:56:14;;;;;;;10.15;5.75;;;1.00;99.90;;;;;;5040891;28;20517;-91
2022/03/09 00:58:40;;;;;;;9.27;5.97;;;1.00;99.90;;;;;;5057583;28;20397;-92
2022/03/09 01:01:06;;;;;;;11.98;5.70;;;1.00;99.90;;;;;;5057045;28;20132;-91
2022/03/09 01:03:32;;;;;;;9.90;5.80;;;1.00;99.90;;;;;;5057149;28;20059;-91
2022/03/09 01:05:58;;;;;;;16.20;6.22;;;1.00;99.90;;;;;;5057470;28;20151;-91
2022/03/09 01:08:23;;;;;;;11.18;5.80;;;1.00;99.90;;;;;;5040512;28;20554;-91
2022/03/09 01:10:49;;;;;;;9.75;5.97;;;1.00;99.90;;;;;;5040366;28;20075;-90
2022/03/09 01:13:15;;;;;;;11.98;6.47;;;1.00;99.90;;;;;;5040406;28;20098;-91
2022/03/09 01:15:41;;;;;;;10.65;5.88;;;1.00;99.90;;;;;;5056868;28;20040;-91
2022/03/09 01:18:07;;;;;;;19.35;6.60;;;0.80;99.90;;;;;;5056844;28;20045;-91
2022/03/09 01:20:32;;;;;;;11.38;5.93;;;1.00;99.90;;;;;;5057123;28;20048;-91
2022/03/09 01:22:58;;;;;;;15.30;7.13;;;1.00;99.90;;;;;;5056703;28;20044;-91
2022/03/09 01:25:24;;;;;;;11.05;6.50;;;0.90;99.90;;;;;;5056991;28;20048;-91
2022/03/09 01:27:50;;;;;;;12.30;6.43;;;0.90;99.90;;;;;;5040163;28;20048;-91
2022/03/09 01:30:15;;;;;;;11.40;5.60;;;1.30;99.90;;;;;;5039181;28;20063;-91
2022/03/09 01:32:41;;;;;;;10.15;6.13;;;0.90;99.90;;;;;;5039830;28;20052;-90
2022/03/09 01:35:07;;;;;;;10.95;6.20;;;0.90;99.90;;;;;;5040101;28;20152;-91
2022/03/09 01:37:33;;;;;;;12.80;6.80;;;0.90;99.90;;;;;;5040296;28;20067;-90
2022/03/09 01:39:58;;;;;;;13.98;6.20;;;0.80;99.90;;;;;;5056743;28;20045;-91
2022/03/09 01:42:24;;;;;;;12.00;6.63;;;0.80;99.90;;;;;;5056552;28;20041;-90
2022/03/09 01:44:50;;;;;;;11.18;6.63;;;1.00;99.90;;;;;;5039605;28;20060;-91
2022/03/09 01:47:15;;;;;;;14.02;6.32;;;0.60;99.90;;;;;;5056217;28;20044;-90
2022/03/09 01:49:41;;;;;;;13.40;6.60;;;0.60;99.90;;;;;;5039887;28;20135;-91
2022/03/09 01:52:08;;;;;;;12.07;6.50;;;0.60;99.90;;;;;;5039745;28;20040;-91
2022/03/09 01:54:34;;;;;;;11.30;7.18;;;0.50;99.90;;;;;;5056287;28;20047;-91
2022/03/09 01:57:00;;;;;;;13.73;6.40;;;0.50;99.90;;;;;;5039040;28;20048;-91
2022/03/09 01:59:26;;;;;;;13.52;6.40;;;0.50;99.90;;;;;;5039710;28;20088;-91
2022/03/09 02:01:52;;;;;;;12.23;6.55;;;0.40;99.90;;;;;;5039734;28;20056;-90
2022/03/09 02:04:19;;;;;;;12.80;6.40;;;0.40;99.90;;;;;;5055946;28;20048;-92
2022/03/09 02:06:45;;;;;;;11.65;6.63;;;0.80;99.90;;;;;;5039293;28;20041;-91
2022/03/09 02:11:57;;;;;;;9.77;6.28;;;0.30;99.90;;;;;;5055940;28;20059;-92
2022/03/09 02:14:27;;;;;;;14.25;6.70;;;0.30;99.90;;;;;;5039482;28;20402;-91
2022/03/09 02:16:53;;;;;;;10.88;6.40;;;0.30;99.90;;;;;;5039046;28;20036;-90
2022/03/09 02:19:18;;;;;;;12.57;6.72;;;0.40;99.90;;;;;;5055988;28;20049;-91
2022/03/09 02:21:47;;;;;;;10.73;6.38;;;0.70;99.90;;;;;;5055196;28;20109;-91
2022/03/09 02:24:13;;;;;;;14.02;6.50;;;0.50;99.90;;;;;;5055615;28;20052;-90
2022/03/09 02:26:40;;;;;;;10.63;6.25;;;0.50;99.90;;;;;;5055702;28;20497;-91
2022/03/09 02:29:05;;;;;;;17.17;6.63;;;0.60;99.90;;;;;;5039071;28;20059;-91
2022/03/09 02:31:31;;;;;;;15.10;6.32;;;1.00;99.90;;;;;;5055523;28;20044;-91
2022/03/09 02:33:57;;;;;;;11.75;6.05;;;0.90;99.90;;;;;;5038282;28;20084;-91
2022/03/09 02:36:23;;;;;;;11.50;5.90;;;1.20;99.90;;;;;;5039219;28;20235;-91
2022/03/09 02:38:48;;;;;;;11.82;6.22;;;0.70;99.90;;;;;;5055601;28;20131;-91
2022/03/09 02:41:14;;;;;;;11.85;6.30;;;0.70;99.90;;;;;;5055387;28;20102;-90
2022/03/09 02:43:40;;;;;;;11.68;6.82;;;0.70;99.90;;;;;;5038932;28;20509;-90
2022/03/09 02:46:05;;;;;;;11.88;5.82;;;0.60;99.90;;;;;;5054932;28;20051;-90
2022/03/09 02:48:31;;;;;;;16.35;5.88;;;0.60;99.90;;;;;;5038553;28;20410;-91
2022/03/09 02:50:57;;;;;;;11.50;6.05;;;0.50;99.90;;;;;;5055547;28;20054;-91
2022/03/09 02:53:23;;;;;;;14.25;6.45;;;0.60;99.90;;;;;;5054939;28;20089;-90
2022/03/09 02:55:48;;;;;;;11.02;5.97;;;0.50;99.90;;;;;;5038502;28;20454;-91
2022/03/09 02:58:14;;;;;;;10.77;6.68;;;0.50;99.90;;;;;;5055044;28;20087;-90
2022/03/09 03:00:40;;;;;;;12.07;6.35;;;0.50;99.90;;;;;;5038438;28;20072;-90
2022/03/09 03:03:05;;;;;;;10.85;6.28;;;0.40;99.90;;;;;;5038277;28;20049;-90
2022/03/09 03:05:31;;;;;;;12.70;6.60;;;0.40;99.90;;;;;;5038835;28;20542;-90
2022/03/09 03:07:56;;;;;;;12.15;6.80;;;0.40;99.90;;;;;;5055266;28;20079;-91
2022/03/09 03:10:22;;;;;;;12.10;6.65;;;0.60;99.90;;;;;;5055197;28;20474;-90
2022/03/09 03:12:48;;;;;;;12.32;6.38;;;0.30;99.90;;;;;;5054978;28;20072;-91
2022/03/09 03:15:13;;;;;;;12.55;6.22;;;0.30;99.90;;;;;;5054800;28;20059;-91
2022/03/09 03:17:39;;;;;;;11.43;5.95;;;0.20;99.90;;;;;;5054840;28;20548;-91
2022/03/09 03:20:05;;;;;;;13.57;6.38;;;0.20;99.90;;;;;;5038732;28;20092;-91
2022/03/09 03:22:31;;;;;;;18.10;7.32;;;0.30;99.90;;;;;;5054865;28;20493;-90
2022/03/09 03:24:57;;;;;;;10.82;6.30;;;0.30;99.90;;;;;;5038391;28;20147;-90
2022/03/09 03:27:23;;;;;;;14.85;6.65;;;0.30;99.90;;;;;;5055309;28;20131;-91
2022/03/09 03:29:48;;;;;;;13.90;6.80;;;0.20;99.90;;;;;;5054899;28;20101;-91
2022/03/09 03:32:14;;;;;;;11.45;6.57;;;0.20;99.90;;;;;;5054630;28;20557;-91
2022/03/09 03:34:40;;;;;;;11.27;6.53;;;0.10;99.90;;;;;;5054855;28;20056;-91
2022/03/09 03:37:06;;;;;;;11.20;5.93;;;0.10;99.90;;;;;;5054645;28;20439;-91
2022/03/09 03:39:31;;;;;;;12.90;6.53;;;0.10;99.90;;;;;;5038180;28;20048;-91
2022/03/09 03:41:57;;;;;;;12.02;6.35;;;0.10;99.90;;;;;;5038519;28;20486;-91
2022/03/09 03:44:23;;;;;;;10.65;6.43;;;0.10;99.90;;;;;;5054709;28;20401;-91
2022/03/09 03:46:48;;;;;;;11.10;6.13;;;0.60;99.90;;;;;;5038071;28;20394;-90
2022/03/09 03:49:14;;;;;;;13.05;6.30;;;0.20;99.90;;;;;;5037798;28;20512;-91
2022/03/09 03:51:40;;;;;;;11.73;6.50;;;0.30;99.90;;;;;;5038038;28;20051;-91
2022/03/09 03:54:06;;;;;;;12.80;6.68;;;0.40;99.90;;;;;;5054248;28;20371;-90
2022/03/09 03:56:31;;;;;;;11.40;6.30;;;0.40;99.90;;;;;;5054938;28;20041;-90
2022/03/09 03:58:57;;;;;;;10.95;6.07;;;0.40;99.90;;;;;;5054969;28;20397;-91
2022/03/09 04:01:22;;;;;;;10.30;6.32;;;0.40;99.90;;;;;;5054491;28;20048;-90
2022/03/09 04:03:48;;;;;;;13.07;6.38;;;0.50;99.90;;;;;;5054558;28;20048;-92
2022/03/09 04:06:14;;;;;;;11.93;6.32;;;0.50;99.90;;;;;;5054788;28;20048;-91
2022/03/09 04:08:40;;;;;;;11.90;6.70;;;0.60;99.90;;;;;;5054639;28;20070;-91
2022/03/09 04:11:05;;;;;;;15.23;7.13;;;0.80;99.90;;;;;;5038069;28;20049;-91
2022/03/09 04:13:31;;;;;;;13.23;7.13;;;0.50;99.90;;;;;;5054288;28;20111;-90
2022/03/09 04:15:57;;;;;;;12.95;6.47;;;0.50;99.90;;;;;;5038224;28;20044;-90
2022/03/09 04:18:22;;;;;;;12.15;6.85;;;0.40;99.90;;;;;;5054790;28;20044;-90
2022/03/09 04:20:48;;;;;;;13.93;7.03;;;0.40;99.90;;;;;;5056054;28;20516;-91
2022/03/09 04:23:13;;;;;;;11.45;6.55;;;0.30;99.90;;;;;;5057789;28;20089;-91
2022/03/09 04:25:39;;;;;;;14.48;6.97;;;0.30;99.90;;;;;;5041359;28;20091;-91
2022/03/09 04:28:05;;;;;;;11.80;7.00;;;0.20;99.90;;;;;;5041298;28;20037;-91
2022/03/09 04:30:32;;;;;;;12.55;7.57;;;0.20;99.90;;;;;;5058023;28;20053;-92
2022/03/09 04:32:58;;;;;;;12.70;7.22;;;0.10;99.90;;;;;;5040904;28;20044;-91
2022/03/09 04:35:24;;;;;;;11.52;7.10;;;0.20;99.90;;;;;;5057610;28;20060;-90
2022/03/09 04:37:49;;;;;;;12.10;6.97;;;0.10;99.90;;;;;;5057930;28;20056;-91
2022/03/09 04:40:16;;;;;;;15.00;7.50;;;0.60;99.90;;;;;;5057793;28;20074;-91
2022/03/09 04:42:42;;;;;;;11.85;6.60;;;0.00;99.90;;;;;;5041426;28;20488;-91
2022/03/09 04:45:09;;;;;;;11.75;6.95;;;0.10;99.90;;;;;;5041141;28;20135;-90
2022/03/09 04:47:35;;;;;;;10.65;6.97;;;0.00;99.90;;;;;;5040936;28;20048;-91
2022/03/09 04:50:01;;;;;;;15.10;7.63;;;0.00;99.90;;;;;;5057462;28;20045;-92
2022/03/09 04:52:26;;;;;;;16.98;7.13;;;-0.20;99.90;;;;;;5057622;28;20383;-91
2022/03/09 04:54:52;;;;;;;14.35;7.43;;;-0.20;99.90;;;;;;5057406;28;20090;-91
2022/03/09 04:57:18;;;;;;;12.43;6.97;;;-0.30;99.90;;;;;;5040830;28;20048;-90
2022/03/09 04:59:44;;;;;;;19.50;7.55;;;-0.40;99.90;;;;;;5056914;28;20562;-91
2022/03/09 05:02:10;;;;;;;12.63;7.60;;;-0.50;99.90;;;;;;5040803;28;20087;-91
2022/03/09 05:04:36;;;;;;;15.25;7.50;;;-0.40;99.90;;;;;;5057323;28;20052;-92
2022/03/09 05:07:02;;;;;;;13.95;7.40;;;-0.70;99.90;;;;;;5040766;28;20095;-90
2022/03/09 05:09:28;;;;;;;12.65;7.18;;;-0.80;99.90;;;;;;5041085;28;20129;-89
2022/03/09 05:11:54;;;;;;;12.55;7.07;;;-0.80;99.90;;;;;;5057171;28;20053;-89
2022/03/09 05:14:20;;;;;;;15.75;7.55;;;-0.90;99.90;;;;;;5040755;28;20114;-89
2022/03/09 05:16:45;;;;;;;12.48;6.88;;;-0.90;99.90;;;;;;5040581;28;20048;-89
2022/03/09 05:19:11;;;;;;;12.00;7.35;;;-0.90;99.90;;;;;;5056927;28;20037;-90
2022/03/09 05:21:37;;;;;;;12.88;7.88;;;-1.00;99.90;;;;;;5039953;28;20041;-89
2022/03/09 05:24:11;;;;;;;12.68;7.75;;;-1.00;99.90;;;;;;5056662;28;20505;-89
2022/03/09 05:26:37;;;;;;;13.10;6.88;;;-1.00;99.90;;;;;;5040610;28;20055;-89
2022/03/09 05:29:04;;;;;;;12.23;7.15;;;-0.90;99.90;;;;;;5056726;28;20049;-89
2022/03/09 05:31:30;;;;;;;13.80;8.00;;;-0.90;99.90;;;;;;5039439;28;20059;-90
2022/03/09 05:33:55;;;;;;;13.88;7.97;;;-0.90;99.90;;;;;;5056145;28;20421;-89
2022/03/09 05:36:21;;;;;;;14.25;7.90;;;-0.80;99.90;;;;;;5056775;28;20044;-92
2022/03/09 05:38:47;;;;;;;12.95;6.93;;;-0.50;99.90;;;;;;5056826;28;20836;-91
2022/03/09 05:41:12;;;;;;;10.52;7.15;;;-0.60;99.90;;;;;;5056563;28;20048;-91
2022/03/09 05:43:38;;;;;;;16.95;7.38;;;-0.20;99.90;;;;;;5056723;28;20036;-92
2022/03/09 05:46:04;;;;;;;13.90;7.45;;;-0.90;99.90;;;;;;5056579;28;20052;-91
2022/03/09 05:48:29;;;;;;;12.77;7.20;;;-0.80;99.90;;;;;;5056505;28;20433;-91
2022/03/09 05:50:55;;;;;;;15.13;7.60;;;-0.90;99.90;;;;;;5055956;28;20048;-91
2022/03/09 05:53:21;;;;;;;13.00;6.97;;;-0.60;99.90;;;;;;5055858;28;20558;-91
2022/03/09 05:55:46;;;;;;;14.85;7.57;;;-0.60;99.90;;;;;;5056264;28;20500;-92
2022/03/09 05:58:12;;;;;;;14.90;7.85;;;-0.70;99.90;;;;;;5056395;28;20084;-92
2022/03/09 06:00:38;;;;;;;12.23;6.78;;;-1.00;99.90;;;;;;5038575;28;20131;-89
2022/03/09 06:03:03;;;;;;;17.98;7.82;;;-1.00;99.90;;;;;;5055887;28;20520;-89
2022/03/09 06:05:29;;;;;;;12.35;7.25;;;-1.00;99.90;;;;;;5053331;28;20043;-92
2022/03/09 06:07:55;;;;;;;13.60;7.35;;;-0.70;99.90;;;;;;5059282;28;20095;-91
2022/03/09 06:10:20;;;;;;;12.95;7.38;;;-0.90;99.90;;;;;;5059638;28;20056;-91
2022/03/09 06:12:46;;;;;;;13.50;7.32;;;-0.90;99.90;;;;;;5076103;28;20036;-92
2022/03/09 06:15:12;;;;;;;15.52;7.40;;;-0.90;99.90;;;;;;5076245;28;20040;-89
2022/03/09 06:17:49;;;;;;;19.92;8.27;;;-0.90;99.90;;;;;;5075589;28;20580;-89
2022/03/09 06:20:20;;;;;;;17.45;8.30;;;-0.90;99.90;;;;;;5075816;28;20398;-90
2022/03/09 06:22:46;;;;;;;12.52;7.57;;;-0.90;99.90;;;;;;5059177;28;20143;-89
2022/03/09 06:25:15;;;;;;;14.38;8.27;;;-1.00;99.90;;;;;;5075934;28;20503;-91
2022/03/09 06:27:51;;;;;;;13.23;7.40;;;-0.90;99.90;;;;;;5058752;28;20058;-91
2022/03/09 06:30:17;;;;;;;14.07;8.52;;;-1.00;99.90;;;;;;5075711;28;20051;-91
2022/03/09 06:32:44;;;;;;;14.18;7.15;;;-0.90;99.90;;;;;;5058815;28;20464;-89
2022/03/09 06:35:11;;;;;;;15.30;8.25;;;-0.90;99.90;;;;;;5075478;28;20489;-89
2022/03/09 06:37:37;;;;;;;15.75;8.55;;;-0.30;99.90;;;;;;5075754;28;20044;-89
2022/03/09 06:40:08;;;;;;;13.65;7.60;;;-0.80;99.90;;;;;;5075581;28;20081;-89
2022/03/09 06:42:34;;;;;;;14.75;8.07;;;-0.80;99.90;;;;;;5058453;28;20554;-90
2022/03/09 06:45:00;;;;;;;13.48;7.43;;;-0.60;99.90;;;;;;5058837;28;20639;-89
2022/03/09 06:47:26;;;;;;;15.63;7.57;;;-0.60;99.90;;;;;;5075449;28;20514;-89
2022/03/09 06:49:52;;;;;;;13.98;7.47;;;-0.40;99.90;;;;;;5075323;28;20047;-91
2022/03/09 06:52:18;;;;;;;12.18;7.03;;;-0.30;99.90;;;;;;5058694;28;20443;-91
2022/03/09 06:54:44;;;;;;;14.00;7.80;;;-0.30;99.90;;;;;;5075305;28;20040;-91
2022/03/09 06:57:09;;;;;;;15.15;7.70;;;-0.30;99.90;;;;;;5075082;28;20044;-91
2022/03/09 06:59:36;;;;;;;13.05;6.88;;;-0.20;99.90;;;;;;5075301;28;20475;-91
2022/03/09 07:02:03;;;;;;;14.50;6.68;;;-0.10;99.90;;;;;;5074743;28;20136;-91
2022/03/09 07:04:28;;;;;;;13.38;7.32;;;0.00;99.90;;;;;;5075232;28;20050;-91
2022/03/09 07:06:54;;;;;;;12.98;7.05;;;-0.60;99.90;;;;;;5075701;28;20540;-89
2022/03/09 07:09:19;;;;;;;16.27;7.75;;;0.10;99.90;;;;;;5058319;28;20445;-91
2022/03/09 07:11:45;;;;;;;12.93;7.22;;;0.20;99.90;;;;;;5075114;28;20405;-90
2022/03/09 07:14:11;;;;;;;14.50;6.97;;;0.60;99.90;;;;;;5058104;28;20037;-91
2022/03/09 07:16:37;;;;;;;15.80;7.38;;;0.80;99.90;;;;;;5074986;28;20059;-90
2022/03/09 07:19:03;;;;;;;11.07;6.95;;;0.60;99.90;;;;;;5074936;28;20491;-91
2022/03/09 07:21:31;;;;;;;16.10;7.88;;;0.70;99.90;;;;;;5058136;28;20043;-90
2022/03/09 07:23:56;;;;;;;10.75;6.97;;;1.30;99.90;;;;;;5057547;28;20096;-90
2022/03/09 07:26:22;;;;;;;13.90;7.53;;;1.00;99.90;;;;;;5074888;28;20090;-90
2022/03/09 07:28:48;;;;;;;15.48;7.35;;;1.20;99.90;;;;;;5074944;28;20473;-91
2022/03/09 07:31:13;;;;;;;12.48;7.22;;;1.30;99.90;;;;;;5074915;28;20048;-88
2022/03/09 07:33:39;;;;;;;11.98;6.95;;;1.40;99.90;;;;;;5074606;28;20079;-88
2022/03/09 07:36:05;;;;;;;12.75;7.00;;;1.50;99.90;;;;;;5074583;28;20076;-88
2022/03/09 07:38:32;;;;;;;13.63;7.10;;;2.60;99.90;;;;;;5058407;28;20047;-88
2022/03/09 07:40:58;;;;;;;15.82;7.57;;;1.70;99.90;;;;;;5074588;28;20066;-90
2022/03/09 07:43:23;;;;;;;11.18;6.72;;;1.80;99.90;;;;;;5074905;28;20048;-90
2022/03/09 07:45:49;;;;;;;13.18;6.72;;;1.90;99.90;;;;;;5058006;28;20127;-90
2022/03/09 07:48:15;;;;;;;12.00;7.00;;;2.30;99.90;;;;;;5074919;28;20390;-91
2022/03/09 07:50:41;;;;;;;11.35;6.95;;;2.40;99.90;;;;;;5057667;28;20181;-90
2022/03/09 07:53:07;;;;;;;12.68;6.47;;;2.30;99.90;;;;;;5074526;28;20123;-91
2022/03/09 07:55:34;;;;;;;13.18;6.30;;;2.70;99.90;;;;;;5076261;28;20048;-91
2022/03/09 07:58:00;;;;;;;12.65;6.25;;;3.20;99.90;;;;;;5061863;28;20059;-90
2022/03/09 08:00:27;;;;;;;11.90;6.90;;;2.90;99.90;;;;;;5061662;28;20511;-92
2022/03/09 08:02:53;;;;;;;10.25;6.18;;;3.10;99.90;;;;;;5061847;28;20602;-91
2022/03/09 08:05:18;;;;;;;10.98;6.10;;;2.90;99.90;;;;;;5061615;28;20036;-91
2022/03/09 08:07:47;;;;;;;15.55;6.70;;;3.40;99.90;;;;;;5061564;28;20047;-91
2022/03/09 08:10:13;;;;;;;11.45;6.05;;;3.20;99.90;;;;;;5078402;28;20055;-91
2022/03/09 08:12:40;;;;;;;12.18;6.43;;;3.40;99.90;;;;;;5061474;28;20046;-90
2022/03/09 08:15:06;;;;;;;11.93;6.40;;;3.50;99.90;;;;;;5061061;28;20052;-90
2022/03/09 08:17:32;;;;;;;14.57;6.90;;;3.60;99.90;;;;;;5061489;28;20044;-92
2022/03/09 08:19:58;;;;;;;12.98;6.55;;;3.70;99.90;;;;;;5060972;28;20146;-93
2022/03/09 08:22:23;;;;;;;11.95;6.18;;;3.90;99.90;;;;;;5061000;28;20451;-91
2022/03/09 08:24:49;;;;;;;11.50;6.50;;;4.00;99.90;;;;;;5077965;28;20052;-91
2022/03/09 08:27:15;;;;;;;14.25;6.53;;;4.10;99.90;;;;;;5061385;28;20084;-90
2022/03/09 08:29:43;;;;;;;9.98;6.45;;;4.50;99.90;;;;;;5077515;28;20489;-91
2022/03/09 08:32:09;;;;;;;12.25;7.00;;;3.90;99.90;;;;;;5077871;28;20375;-91
2022/03/09 08:34:35;;;;;;;11.40;6.47;;;4.40;99.90;;;;;;5060952;28;20056;-91
2022/03/09 08:37:00;;;;;;;12.52;6.32;;;4.40;99.90;;;;;;5061124;28;20044;-91
2022/03/09 08:39:26;;;;;;;13.25;6.82;;;4.60;99.90;;;;;;5077720;28;20083;-91
2022/03/09 08:41:52;;;;;;;13.50;6.50;;;4.90;99.90;;;;;;5077414;28;20048;-90
2022/03/09 08:44:20;;;;;;;13.52;6.78;;;4.70;99.90;;;;;;5077836;28;20082;-90
2022/03/09 08:46:46;;;;;;;12.38;6.53;;;5.10;99.90;;;;;;5060783;28;20044;-91
2022/03/09 08:49:11;;;;;;;12.00;5.88;;;4.90;99.90;;;;;;5060862;28;20139;-91
2022/03/09 08:51:37;;;;;;;12.35;6.00;;;5.40;99.90;;;;;;5060682;28;20127;-91
2022/03/09 08:54:06;;;;;;;13.32;6.40;;;5.40;99.50;;;;;;5060323;28;20036;-92
2022/03/09 08:56:32;;;;;;;11.05;7.03;;;5.10;98.70;;;;;;5060850;28;20516;-90
2022/03/09 08:58:59;;;;;;;15.52;7.53;;;5.40;98.60;;;;;;5060641;28;20059;-91
2022/03/09 09:01:25;;;;;;;11.80;6.55;;;5.60;99.00;;;;;;5077209;28;20040;-91
2022/03/09 09:03:51;;;;;;;13.88;6.60;;;5.50;99.40;;;;;;5060718;28;20040;-91
2022/03/09 09:06:17;;;;;;;13.50;6.28;;;5.50;99.00;;;;;;5060190;28;20039;-92
2022/03/09 09:08:42;;;;;;;11.50;6.65;;;5.80;98.30;;;;;;5077376;28;20478;-92
2022/03/09 09:11:08;;;;;;;11.95;6.57;;;5.90;97.50;;;;;;5077019;28;20047;-91
2022/03/09 09:13:34;;;;;;;8.82;5.80;;;6.00;97.10;;;;;;5077271;28;20037;-91
2022/03/09 09:16:00;;;;;;;10.77;6.63;;;6.20;96.00;;;;;;5076927;28;20055;-90
2022/03/09 09:18:25;;;;;;;9.52;6.72;;;6.50;95.20;;;;;;5076936;28;20098;-90
2022/03/09 09:20:53;;;;;;;11.65;6.50;;;7.40;92.90;;;;;;5076830;28;20075;-92
2022/03/09 09:23:20;;;;;;;10.40;6.88;;;8.20;83.70;;;;;;5060357;28;20056;-92
2022/03/09 09:25:47;;;;;;;10.70;6.53;;;9.20;76.00;;;;;;5060106;28;20052;-91
2022/03/09 09:28:13;;;;;;;9.98;6.30;;;10.50;70.30;;;;;;5060238;28;20048;-91
2022/03/09 09:30:39;;;;;;;11.43;6.40;;;11.80;63.30;;;;;;5077021;28;20051;-89
2022/03/09 09:33:05;;;;;;;9.18;6.57;;;12.80;58.50;;;;;;5076409;28;20036;-88
2022/03/09 09:35:31;;;;;;;11.63;7.03;;;13.60;55.30;;;;;;5076481;28;20047;-89
2022/03/09 09:38:06;;;;;;;9.63;6.85;;;14.40;51.20;;;;;;5059797;28;20051;-89
2022/03/09 09:40:34;;;;;;;9.70;6.55;;;14.90;51.20;;;;;;5059688;28;20515;-90
2022/03/09 09:43:07;;;;;;;8.57;6.47;;;15.60;48.10;;;;;;5076617;28;20056;-89
2022/03/09 09:45:36;;;;;;;11.15;7.10;;;15.80;47.60;;;;;;5059860;28;20051;-90
2022/03/09 09:48:06;;;;;;;9.40;6.88;;;16.20;46.10;;;;;;5076798;28;20485;-90
2022/03/09 09:50:33;;;;;;;9.45;6.57;;;16.60;44.80;;;;;;5076563;28;20091;-90
2022/03/09 09:53:03;;;;;;;9.95;6.90;;;17.10;43.90;;;;;;5076189;28;20432;-89
2022/03/09 09:55:29;;;;;;;10.43;6.80;;;16.70;43.10;;;;;;5059735;28;20048;-89
2022/03/09 09:57:55;;;;;;;9.55;6.68;;;16.90;43.70;;;;;;5076262;28;20485;-90
2022/03/09 10:00:22;;;;;;;12.27;7.07;;;17.20;42.30;;;;;;5059737;28;20501;-89
2022/03/09 10:02:48;;;;;;;9.15;6.50;;;17.40;41.70;;;;;;5076574;28;20051;-92
2022/03/09 10:05:16;;;;;;;10.48;6.63;;;17.60;40.40;;;;;;5076143;28;20054;-90
2022/03/09 10:08:04;;;;;;;9.13;7.00;;;17.60;40.20;;;;;;5059679;28;20051;-90
2022/03/09 10:10:30;;;;;;;13.02;7.22;;;17.40;40.20;;;;;;5075924;28;20090;-89
2022/03/09 10:13:20;;;;;;;8.80;6.97;;;17.60;40.30;;;;;;5059041;28;20035;-89
2022/03/09 10:16:06;;;;;;;10.00;6.93;;;18.00;38.90;;;;;;5059064;28;20058;-90
2022/03/09 10:18:32;;;;;;;11.00;7.13;;;18.60;39.10;;;;;;5058595;28;20051;-89
2022/03/09 10:21:08;;;;;;;10.82;7.72;;;18.80;39.60;;;;;;5075878;28;20143;-91
2022/03/09 10:23:49;;;;;;;10.60;7.35;;;19.00;38.10;;;;;;5075343;28;20062;-89
2022/03/09 10:26:15;;;;;;;11.75;7.35;;;19.00;38.90;;;;;;5075871;28;20487;-90
2022/03/09 10:28:53;;;;;;;11.95;7.40;;;19.10;38.30;;;;;;5075298;28;20079;-89
2022/03/09 10:31:38;;;;;;;11.98;7.70;;;19.20;37.80;;;;;;5059183;28;20493;-89
2022/03/09 10:34:13;;;;;;;12.63;7.57;;;19.30;37.10;;;;;;5058717;28;20036;-91
2022/03/09 10:36:58;;;;;;;9.65;7.00;;;19.30;37.60;;;;;;5058756;28;20047;-91
2022/03/09 10:39:27;;;;;;;13.45;7.28;;;19.40;37.30;;;;;;5075638;28;20460;-89
2022/03/09 10:41:53;;;;;;;11.63;7.20;;;19.50;37.00;;;;;;5075144;28;20511;-89
2022/03/09 10:44:19;;;;;;;9.55;7.53;;;19.70;37.30;;;;;;5058960;28;20044;-89
2022/03/09 10:46:54;;;;;;;10.38;7.65;;;19.70;36.80;;;;;;5058484;28;20127;-89
2022/03/09 10:49:24;;;;;;;11.77;7.65;;;19.90;36.50;;;;;;5058238;28;20109;-90
2022/03/09 10:51:52;;;;;;;10.40;7.30;;;20.30;36.00;;;;;;5075217;28;20055;-91
2022/03/09 10:54:27;;;;;;;11.43;7.43;;;20.40;35.90;;;;;;5058333;28;20386;-90
2022/03/09 10:57:13;;;;;;;11.35;7.68;;;20.40;36.20;;;;;;5075379;28;20079;-90
2022/03/09 10:59:55;;;;;;;10.20;7.78;;;20.70;35.80;;;;;;5074681;28;20052;-89
2022/03/09 11:02:22;;;;;;;9.38;7.53;;;20.80;35.40;;;;;;5075488;28;20079;-90
2022/03/09 11:05:17;;;;;;;10.40;7.20;;;20.90;35.30;;;;;;5058708;28;20127;-90
2022/03/09 11:07:43;;;;;;;11.63;7.78;;;21.10;35.10;;;;;;5058433;28;20394;-90
2022/03/09 11:10:12;;;;;;;13.02;7.72;;;21.30;35.10;;;;;;5093060;28;20114;-90
2022/03/09 11:12:38;;;;;;;9.18;7.45;;;21.60;34.70;;;;;;5058555;28;20101;-90
2022/03/09 11:15:05;;;;;;;12.77;8.35;;;22.00;34.40;;;;;;5058520;28;20059;-89
2022/03/09 11:17:30;;;;;;;10.13;7.50;;;22.00;34.10;;;;;;5058497;28;20148;-89
2022/03/09 11:19:57;;;;;;;12.45;7.75;;;22.00;33.90;;;;;;5075090;28;20075;-89
2022/03/09 11:22:23;;;;;;;10.63;8.18;;;21.90;33.60;;;;;;5074717;28;20067;-89
2022/03/09 11:24:51;;;;;;;11.27;7.93;;;21.90;34.20;;;;;;5075037;28;20048;-90
2022/03/09 11:27:21;;;;;;;10.82;8.55;;;22.00;33.60;;;;;;5058723;28;20455;-91
2022/03/09 11:29:46;;;;;;;13.02;8.40;;;21.80;33.00;;;;;;5059020;28;20056;-92
2022/03/09 11:32:14;;;;;;;12.05;8.57;;;21.60;33.20;;;;;;5062498;28;20109;-90
2022/03/09 11:34:42;;;;;;;12.43;8.25;;;21.60;33.40;;;;;;5079375;28;20127;-90
2022/03/09 11:37:15;;;;;;;10.77;7.63;;;21.80;33.10;;;;;;5062562;28;20048;-90
2022/03/09 11:39:46;;;;;;;13.25;8.00;;;22.00;32.60;;;;;;5078982;28;20044;-91
2022/03/09 11:42:20;;;;;;;10.40;8.15;;;22.30;32.60;;;;;;5079926;28;20044;-91
2022/03/09 11:44:51;;;;;;;11.10;7.75;;;22.10;32.20;;;;;;5079893;28;20052;-92
2022/03/09 11:47:20;;;;;;;9.70;7.93;;;22.30;32.70;;;;;;5063004;28;20044;-92
2022/03/09 11:49:53;;;;;;;11.18;8.02;;;22.10;32.40;;;;;;5062998;28;20131;-89
2022/03/09 11:52:27;;;;;;;10.57;8.05;;;21.80;32.50;;;;;;5064368;28;20123;-90
2022/03/09 11:54:55;;;;;;;11.98;8.35;;;22.00;32.90;;;;;;5079238;28;20055;-92
2022/03/09 11:57:23;;;;;;;11.25;8.80;;;22.30;32.50;;;;;;5079698;28;20052;-90
2022/03/09 12:00:12;;;;;;;13.18;8.90;;;22.70;32.60;;;;;;5063822;28;20066;-91
2022/03/09 12:02:40;;;;;;;11.15;8.52;;;22.80;31.30;;;;;;5078474;28;20528;-92
2022/03/09 12:05:07;;;;;;;10.38;7.80;;;22.80;31.50;;;;;;5079037;28;20044;-92
2022/03/09 12:07:34;;;;;;;13.18;8.27;;;22.50;31.00;;;;;;5062726;28;20044;-89
2022/03/09 12:10:04;;;;;;;10.13;8.18;;;22.40;31.70;;;;;;5061236;28;20516;-90
2022/03/09 12:12:31;;;;;;;10.93;7.95;;;22.50;32.20;;;;;;5078189;28;20051;-90
2022/03/09 12:15:04;;;;;;;12.98;8.45;;;23.10;31.90;;;;;;5078254;28;20099;-93
2022/03/09 12:17:34;;;;;;;10.60;8.27;;;23.60;31.20;;;;;;5061245;28;20044;-90
2022/03/09 12:20:31;;;;;;;10.75;8.55;;;23.80;30.30;;;;;;5079354;28;20102;-90
2022/03/09 12:22:57;;;;;;;11.10;8.35;;;23.60;30.50;;;;;;5078027;28;20048;-90
2022/03/09 12:25:39;;;;;;;11.18;8.55;;;23.50;30.90;;;;;;5078165;28;20061;-92
2022/03/09 12:28:29;;;;;;;11.75;8.68;;;23.60;30.80;;;;;;5061445;28;20489;-92
2022/03/09 12:30:56;;;;;;;13.75;8.07;;;23.70;29.80;;;;;;5078015;28;20055;-90
2022/03/09 12:33:29;;;;;;;9.73;8.07;;;23.60;30.20;;;;;;5077160;28;20488;-90
2022/03/09 12:36:07;;;;;;;11.57;8.43;;;23.50;29.90;;;;;;5061506;28;20040;-91
2022/03/09 12:38:44;;;;;;;12.98;8.45;;;23.30;30.20;;;;;;5078007;28;20393;-93
2022/03/09 12:41:30;;;;;;;10.18;8.10;;;23.30;29.90;;;;;;5060885;28;20047;-91
2022/03/09 12:44:03;;;;;;;11.23;8.52;;;23.40;30.40;;;;;;5078574;28;20451;-90
2022/03/09 12:46:30;;;;;;;10.95;9.02;;;23.60;29.70;;;;;;5078138;28;20048;-92